createdAt,value
2022-11-23T00:02:40.942Z,96282.28
2022-11-23T00:07:43.789Z,96274.38
2022-11-23T00:12:47.740Z,96276.13
2022-11-23T00:17:50.399Z,96248.19
2022-11-23T00:22:52.960Z,96235.13
2022-11-23T00:27:56.871Z,96210.78
2022-11-23T00:32:59.455Z,96189.75
2022-11-23T00:38:02.019Z,96159.34
2022-11-23T00:43:06.085Z,96095.59
2022-11-23T00:48:08.951Z,96070.31
2022-11-23T00:53:11.533Z,96041.44
2022-11-23T00:58:15.466Z,96038.69
2022-11-23T01:03:18.506Z,96030.00
2022-11-23T01:08:21.177Z,96029.91
2022-11-23T01:13:25.140Z,96025.53
2022-11-23T01:18:27.741Z,96023.72
2022-11-23T01:23:30.555Z,96027.25
2022-11-23T01:28:35.196Z,96027.16
2022-11-23T01:33:38.155Z,96023.66
2022-11-23T01:38:41.606Z,96016.63
2022-11-23T01:43:45.868Z,96018.50
2022-11-23T01:48:51.522Z,96019.25
2022-11-23T01:53:57.609Z,96007.91
2022-11-23T01:59:04.101Z,95999.13
2022-11-23T02:04:08.549Z,96013.19
2022-11-23T02:09:11.942Z,96012.25
2022-11-23T02:14:21.929Z,95990.50
2022-11-23T02:19:44.789Z,95986.94
2022-11-23T02:24:50.556Z,95987.84
2022-11-23T02:29:55.638Z,95987.88
2022-11-23T02:34:58.217Z,95975.63
2022-11-23T02:40:02.151Z,95978.22
2022-11-23T02:45:10.232Z,95962.50
2022-11-23T02:50:13.036Z,95951.13
2022-11-23T02:55:18.465Z,95952.88
2022-11-23T03:00:22.694Z,95934.34
2022-11-23T03:05:25.316Z,95932.50
2022-11-23T03:10:28.506Z,95936.03
2022-11-23T03:15:33.386Z,95930.97
2022-11-23T03:20:38.338Z,95917.16
2022-11-23T03:25:41.361Z,95893.47
2022-11-23T03:30:45.837Z,95909.25
2022-11-23T03:35:48.824Z,95890.91
2022-11-23T03:40:58.357Z,95875.09
2022-11-23T03:46:25.386Z,95872.31
2022-11-23T03:51:28.189Z,95871.41
2022-11-23T03:56:31.118Z,95872.28
2022-11-23T04:01:35.089Z,95867.91
2022-11-23T04:06:41.884Z,95878.44
2022-11-23T04:11:57.154Z,95888.16
2022-11-23T04:17:02.179Z,95876.03
2022-11-23T04:22:05.637Z,95875.94
2022-11-23T04:27:14.606Z,95861.91
2022-11-23T04:32:19.087Z,95847.84
2022-11-23T04:37:21.706Z,95848.03
2022-11-23T04:42:25.338Z,95859.53
2022-11-23T04:47:34.358Z,95847.34
2022-11-23T04:52:41.388Z,95843.03
2022-11-23T04:57:49.763Z,95848.38
2022-11-23T05:02:54.330Z,95821.19
2022-11-23T05:08:02.443Z,95824.75
2022-11-23T05:13:22.122Z,95801.28
2022-11-23T05:18:27.675Z,95783.88
2022-11-23T05:23:30.398Z,95746.28
2022-11-23T05:28:42.279Z,95737.47
2022-11-23T05:33:50.667Z,95750.69
2022-11-23T05:39:01.085Z,95741.06
2022-11-23T05:44:07.884Z,95747.19
2022-11-23T05:49:12.047Z,95738.44
2022-11-23T05:54:15.477Z,95739.38
2022-11-23T05:59:23.298Z,95740.25
2022-11-23T06:04:33.706Z,95725.38
2022-11-23T06:09:36.945Z,95726.22
2022-11-23T06:14:43.518Z,95711.34
2022-11-23T06:19:48.335Z,95721.94
2022-11-23T06:24:51.145Z,95724.53
2022-11-23T06:30:13.626Z,95729.94
2022-11-23T06:35:18.670Z,95730.03
2022-11-23T06:40:21.574Z,95721.31
2022-11-23T06:45:27.116Z,95734.50
2022-11-23T06:50:33.841Z,95745.06
2022-11-23T06:55:36.820Z,95763.50
2022-11-23T07:00:41.350Z,95770.44
2022-11-23T07:05:46.778Z,95767.88
2022-11-23T07:10:49.438Z,95787.09
2022-11-23T07:15:53.244Z,95785.31
2022-11-23T07:20:58.305Z,95806.22
2022-11-23T07:26:03.587Z,95816.53
2022-11-23T07:31:06.445Z,95822.56
2022-11-23T07:36:11.085Z,95828.59
2022-11-23T07:41:16.419Z,95843.28
2022-11-23T07:46:42.829Z,95845.78
2022-11-23T07:51:46.774Z,95846.50
2022-11-23T07:56:49.378Z,95848.22
2022-11-23T08:01:57.044Z,95858.66
2022-11-23T08:07:02.507Z,95853.38
2022-11-23T08:12:05.261Z,95856.84
2022-11-23T08:17:08.641Z,95854.06
2022-11-23T08:22:15.766Z,95844.13
2022-11-23T08:27:18.615Z,95852.69
2022-11-23T08:32:21.190Z,95846.53
2022-11-23T08:37:25.402Z,95849.81
2022-11-23T08:42:28.030Z,95862.84
2022-11-23T08:47:30.655Z,95871.38
2022-11-23T08:52:34.715Z,95861.50
2022-11-23T08:57:37.409Z,95874.53
2022-11-23T09:02:40.138Z,95883.84
2022-11-23T09:07:44.216Z,95909.00
2022-11-23T09:12:47.049Z,95925.25
2022-11-23T09:17:49.777Z,95968.94
2022-11-23T09:22:54.271Z,96007.38
2022-11-23T09:27:59.325Z,96043.19
2022-11-23T09:33:01.952Z,96098.03
2022-11-23T09:38:06.018Z,96161.19
2022-11-23T09:43:16.618Z,96210.38
2022-11-23T09:48:31.651Z,96289.72
2022-11-23T09:53:39.392Z,96378.81
2022-11-23T09:58:42.465Z,96502.25
2022-11-23T10:03:49.067Z,96570.50
2022-11-23T10:09:06.485Z,96679.81
2022-11-23T10:14:19.902Z,96778.72
2022-11-23T10:19:30.386Z,96877.63
2022-11-23T10:24:39.302Z,97136.03
2022-11-23T10:29:43.268Z,97303.34
2022-11-23T10:34:50.366Z,97432.97
2022-11-23T10:39:54.344Z,97512.75
2022-11-23T10:44:57.603Z,97604.78
2022-11-23T10:50:00.187Z,97701.22
2022-11-23T10:55:09.143Z,97774.91
2022-11-23T11:00:17.840Z,97871.38
2022-11-23T11:06:07.401Z,98135.38
2022-11-23T11:11:01.072Z,98317.81
2022-11-23T11:16:05.655Z,98394.03
2022-11-23T11:21:18.868Z,98456.53
2022-11-23T11:26:24.350Z,98532.72
2022-11-23T11:31:52.000Z,98582.16
2022-11-23T11:37:02.843Z,98619.75
2022-11-23T11:42:12.670Z,98666.00
2022-11-23T11:47:24.202Z,98709.78
2022-11-23T11:52:29.325Z,98732.56
2022-11-23T11:57:37.512Z,98762.66
2022-11-23T12:02:44.349Z,98779.75
2022-11-23T12:07:50.335Z,98813.75
2022-11-23T12:12:56.469Z,98822.38
2022-11-23T12:18:24.708Z,98813.88
2022-11-23T12:23:35.470Z,98821.84
2022-11-23T12:28:49.983Z,98862.50
2022-11-23T12:34:13.197Z,98917.66
2022-11-23T12:39:32.253Z,98937.34
2022-11-23T12:45:07.239Z,98952.25
2022-11-23T12:50:20.629Z,98954.53
2022-11-23T12:55:26.243Z,98959.81
2022-11-23T13:00:34.836Z,98970.81
2022-11-23T13:05:57.320Z,98988.78
2022-11-23T13:11:14.416Z,99003.81
2022-11-23T13:16:34.904Z,99001.13
2022-11-23T13:21:38.898Z,98998.13
2022-11-23T13:26:41.580Z,99008.41
2022-11-23T13:31:45.653Z,99037.13
2022-11-23T13:37:15.308Z,99061.22
2022-11-23T13:42:18.548Z,99063.97
2022-11-23T13:47:22.626Z,99047.13
2022-11-23T13:52:28.348Z,99048.47
2022-11-23T13:57:31.698Z,99037.06
2022-11-23T14:02:35.776Z,99019.13
2022-11-23T14:07:43.055Z,99021.03
2022-11-23T14:12:48.256Z,99016.41
2022-11-23T14:18:15.443Z,99014.63
2022-11-23T14:23:38.366Z,98999.31
2022-11-23T14:28:53.416Z,98994.75
2022-11-23T14:34:03.481Z,98991.03
2022-11-23T14:39:46.170Z,98977.66
2022-11-23T14:44:50.679Z,98969.81
2022-11-23T14:49:54.774Z,98964.94
2022-11-23T14:55:00.049Z,98970.09
2022-11-23T15:00:05.911Z,98963.53
2022-11-23T15:05:19.021Z,98965.84
2022-11-23T15:10:29.879Z,98970.06
2022-11-23T15:15:37.885Z,98974.78
2022-11-23T15:20:45.043Z,98983.63
2022-11-23T15:25:52.274Z,98994.81
2022-11-23T15:30:58.658Z,98986.41
2022-11-23T15:36:03.369Z,99000.31
2022-11-23T15:41:06.317Z,98996.47
2022-11-23T15:46:12.815Z,99005.94
2022-11-23T15:51:25.894Z,99003.97
2022-11-23T15:56:30.752Z,99004.72
2022-11-23T16:01:33.498Z,99001.59
2022-11-23T16:06:39.129Z,99005.53
2022-11-23T16:11:45.659Z,99011.56
2022-11-23T16:16:49.562Z,99012.28
2022-11-23T16:22:01.763Z,99018.31
2022-11-23T16:27:13.264Z,99023.06
2022-11-23T16:32:23.888Z,99026.34
2022-11-23T16:37:28.861Z,99034.94
2022-11-23T16:42:31.619Z,99031.91
2022-11-23T16:47:35.109Z,99024.66
2022-11-23T16:52:42.962Z,99026.59
2022-11-23T16:57:45.648Z,99031.78
2022-11-23T17:02:48.337Z,99032.63
2022-11-23T17:07:52.545Z,99035.25
2022-11-23T17:12:56.056Z,99039.69
2022-11-23T17:17:59.778Z,99043.25
2022-11-23T17:23:03.687Z,99065.09
2022-11-23T17:28:11.690Z,99076.81
2022-11-23T17:33:14.404Z,99067.19
2022-11-23T17:38:20.879Z,99065.25
2022-11-23T17:43:23.458Z,99065.22
2022-11-23T17:48:26.050Z,99068.94
2022-11-23T17:53:29.958Z,99055.50
2022-11-23T17:58:32.658Z,99046.25
2022-11-23T18:03:35.325Z,99037.75
2022-11-23T18:08:39.474Z,99029.81
2022-11-23T18:13:42.328Z,99032.44
2022-11-23T18:18:45.001Z,99022.66
2022-11-23T18:23:48.959Z,98970.59
2022-11-23T18:28:51.570Z,98933.91
2022-11-23T18:33:54.135Z,98915.56
2022-11-23T18:38:58.046Z,98893.69
2022-11-23T18:44:00.582Z,98883.38
2022-11-23T18:49:03.206Z,98870.28
2022-11-23T18:54:07.252Z,98849.34
2022-11-23T18:59:19.175Z,98822.16
2022-11-23T19:04:32.364Z,98798.66
2022-11-23T19:09:36.395Z,98765.34
2022-11-23T19:14:38.989Z,98762.69
2022-11-23T19:19:41.533Z,98711.00
2022-11-23T19:24:45.422Z,98657.72
2022-11-23T19:29:48.003Z,98624.56
2022-11-23T19:34:50.614Z,98594.03
2022-11-23T19:39:54.559Z,98563.41
2022-11-23T19:44:57.249Z,98526.81
2022-11-23T19:50:00.567Z,98496.31
2022-11-23T19:55:05.799Z,98464.84
2022-11-23T20:00:10.190Z,98430.84
2022-11-23T20:05:14.444Z,98401.09
2022-11-23T20:10:18.509Z,98376.69
2022-11-23T20:15:21.065Z,98358.31
2022-11-23T20:20:23.629Z,98339.09
2022-11-23T20:25:27.493Z,98331.25
2022-11-23T20:30:30.102Z,98312.88
2022-11-23T20:35:32.668Z,98298.81
2022-11-23T20:40:36.546Z,98284.72
2022-11-23T20:45:39.111Z,98256.91
2022-11-23T20:50:42.025Z,98227.22
2022-11-23T20:55:45.934Z,98207.06
2022-11-23T21:00:51.471Z,98177.47
2022-11-23T21:05:54.205Z,98142.47
2022-11-23T21:11:23.242Z,98121.53
2022-11-23T21:16:25.804Z,98105.88
2022-11-23T21:21:28.434Z,98074.44
2022-11-23T21:26:32.959Z,98041.34
2022-11-23T21:31:35.798Z,98036.13
2022-11-23T21:36:39.585Z,98009.97
2022-11-23T21:41:43.739Z,97989.03
2022-11-23T21:46:46.538Z,97950.56
2022-11-23T21:51:49.599Z,97925.28
2022-11-23T21:56:53.562Z,97869.34
2022-11-23T22:01:58.566Z,97808.22
2022-11-23T22:07:01.463Z,97782.00
2022-11-23T22:12:05.392Z,97740.19
2022-11-23T22:17:07.977Z,97697.38
2022-11-23T22:22:10.531Z,97640.59
2022-11-23T22:27:14.470Z,97603.13
2022-11-23T22:32:17.005Z,97500.09
2022-11-23T22:37:19.528Z,97457.31
2022-11-23T22:42:23.413Z,97402.31
2022-11-23T22:47:26.186Z,97366.53
2022-11-23T22:52:28.923Z,97320.28
2022-11-23T22:57:32.791Z,97295.00
2022-11-23T23:02:35.509Z,97260.94
2022-11-23T23:07:38.250Z,97219.13
2022-11-23T23:12:42.167Z,97144.97
2022-11-23T23:18:04.782Z,97097.88
2022-11-23T23:23:07.495Z,97045.56
2022-11-23T23:28:11.420Z,96992.34
2022-11-23T23:33:14.193Z,96970.56
2022-11-23T23:38:17.104Z,96918.25
2022-11-23T23:43:21.200Z,96760.50
2022-11-23T23:48:24.001Z,96734.34
2022-11-23T23:53:26.725Z,96714.31
2022-11-23T23:58:31.674Z,96580.16
